Time;durP1;ratioP1;P1;durP2;ratioP2;P2;SDS_P1;SDS_P2;PMS_P1;PMS_P2;Temp;Humidity;BMP_temperature;BMP_pressure;BME280_temperature;BME280_humidity;BME280_pressure;Samples;Min_cycle;Max_cycle;Signal;HPM_P1;HPM_P2
2023/01/09 00:01:22;;;;;;;;;;;;;;;6.85;92.62;99289.03;5073740;28;19958;-65
2023/01/09 00:03:47;;;;;;;;;;;;;;;6.84;93.45;99282.91;5073776;28;19967;-65
2023/01/09 00:06:13;;;;;;;;;;;;;;;6.79;92.17;99280.63;5073915;28;20318;-66
2023/01/09 00:08:41;;;;;;;;;;;;;;;6.75;91.97;99278.28;5071564;28;19935;-65
2023/01/09 00:11:06;;;;;;;;;;;;;;;6.70;92.51;99294.47;5072528;28;20654;-65
2023/01/09 00:13:31;;;;;;;;;;;;;;;6.69;92.20;99294.59;5065295;28;19916;-66
2023/01/09 00:15:58;;;;;;;;;;;;;;;6.65;91.81;99301.91;5068135;28;19912;-66
2023/01/09 00:18:23;;;;;;;;;;;;;;;6.67;91.71;99302.63;5072363;28;20030;-66
2023/01/09 00:20:49;;;;;;;;;;;;;;;6.55;92.21;99306.13;5061888;28;20019;-65
2023/01/09 00:23:15;;;;;;;;;;;;;;;6.58;91.32;99312.03;5071062;28;20341;-66
2023/01/09 00:25:40;;;;;;;;;;;;;;;6.55;91.47;99312.25;5067295;28;19916;-66
2023/01/09 00:28:06;;;;;;;;;;;;;;;6.48;92.20;99307.53;5093115;28;20013;-66
2023/01/09 00:30:32;;;;;;;;;;;;;;;6.41;91.96;99312.38;5053151;28;19915;-65
2023/01/09 00:32:57;;;;;;;;;;;;;;;6.43;91.81;99315.78;5054100;28;19920;-65
2023/01/09 00:35:24;;;;;;;;;;;;;;;6.40;92.13;99316.00;5053270;28;19963;-66
2023/01/09 00:37:49;;;;;;;;;;;;;;;6.32;92.09;99315.69;5062098;28;19939;-66
2023/01/09 00:40:15;;;;;;;;;;;;;;;6.32;92.22;99310.41;5085867;28;20015;-65
2023/01/09 00:42:42;;;;;;;;;;;;;;;6.34;91.48;99311.97;5058503;28;19958;-66
2023/01/09 00:45:10;;;;;;;;;;;;;;;6.26;92.82;99316.94;5072015;28;19915;-66
2023/01/09 00:47:37;;;;;;;;;;;;;;;6.22;92.90;99312.84;5072902;28;19999;-65
2023/01/09 00:50:09;;;;;;;;;;;;;;;6.25;91.82;99315.28;5073026;28;20323;-66
2023/01/09 00:52:36;;;;;;;;;;;;;;;6.17;92.75;99306.19;5072535;28;19908;-66
2023/01/09 00:55:02;;;;;;;;;;;;;;;6.12;92.52;99319.72;5071817;28;19908;-66
2023/01/09 00:57:28;;;;;;;;;;;;;;;6.14;92.49;99313.38;5088693;28;19999;-65
2023/01/09 00:59:53;;;;;;;;;;;;;;;6.06;93.35;99314.84;5072481;28;19908;-66
2023/01/09 01:02:19;;;;;;;;;;;;;;;6.10;92.43;99317.19;5065920;28;19916;-66
2023/01/09 01:07:42;;;;;;;;;;;;;;;5.98;93.36;99311.91;5053276;28;19908;-66
2023/01/09 01:10:15;;;;;;;;;;;;;;;6.05;92.97;99313.19;5071000;28;19916;-65
2023/01/09 01:12:41;;;;;;;;;;;;;;;5.98;92.46;99314.56;5071412;28;19912;-66
2023/01/09 01:15:06;;;;;;;;;;;;;;;5.93;92.79;99317.50;5069577;28;19928;-66
2023/01/09 01:17:35;;;;;;;;;;;;;;;5.95;93.71;99320.06;5053262;28;19940;-66
2023/01/09 01:20:01;;;;;;;;;;;;;;;5.95;93.48;99315.63;5052538;28;19913;-66
2023/01/09 01:22:26;;;;;;;;;;;;;;;5.86;93.54;99314.41;5060807;28;19985;-66
2023/01/09 01:24:52;;;;;;;;;;;;;;;5.83;93.93;99322.53;5071789;28;19908;-66
2023/01/09 01:27:17;;;;;;;;;;;;;;;5.82;93.44;99330.53;5087890;28;20003;-66
2023/01/09 01:29:45;;;;;;;;;;;;;;;5.85;93.36;99332.97;5087763;28;19920;-65
2023/01/09 01:32:11;;;;;;;;;;;;;;;5.79;93.42;99328.94;5070549;28;19913;-66
2023/01/09 01:34:36;;;;;;;;;;;;;;;5.82;92.73;99336.66;5054135;28;19913;-65
2023/01/09 01:37:02;;;;;;;;;;;;;;;5.78;93.37;99331.72;5050820;28;20307;-66
2023/01/09 01:39:27;;;;;;;;;;;;;;;5.76;94.00;99339.72;5050182;28;19997;-66
2023/01/09 01:41:52;;;;;;;;;;;;;;;5.77;93.41;99341.44;5084210;28;19916;-65
2023/01/09 01:44:36;;;;;;;;;;;;;;;5.73;93.13;99337.28;5060430;28;19912;-66
2023/01/09 01:47:01;;;;;;;;;;;;;;;5.71;93.76;99344.47;5051968;28;20356;-65
2023/01/09 01:49:27;;;;;;;;;;;;;;;5.73;92.29;99347.84;5051267;28;19999;-65
2023/01/09 01:51:52;;;;;;;;;;;;;;;5.63;93.90;99347.63;5051656;28;19909;-65
2023/01/09 01:54:22;;;;;;;;;;;;;;;5.60;94.01;99342.53;5051549;28;19919;-66
2023/01/09 01:56:49;;;;;;;;;;;;;;;5.60;94.27;99352.25;5051870;28;19908;-66
2023/01/09 01:59:14;;;;;;;;;;;;;;;5.60;92.92;99337.28;5052115;28;20423;-65
2023/01/09 02:01:41;;;;;;;;;;;;;;;5.53;94.11;99348.31;5052011;28;20004;-65
2023/01/09 02:04:06;;;;;;;;;;;;;;;5.58;92.90;99349.72;5069518;28;19962;-65
2023/01/09 02:06:33;;;;;;;;;;;;;;;5.49;93.92;99352.97;5087661;28;19912;-65
2023/01/09 02:08:59;;;;;;;;;;;;;;;5.49;93.67;99346.84;5070682;28;19908;-66
2023/01/09 02:11:25;;;;;;;;;;;;;;;5.54;92.86;99350.03;5070683;28;19915;-66
2023/01/09 02:13:51;;;;;;;;;;;;;;;5.48;93.91;99351.28;5055251;28;19956;-65
2023/01/09 02:16:35;;;;;;;;;;;;;;;5.43;95.06;99345.47;5072078;28;20347;-66
2023/01/09 02:19:15;;;;;;;;;;;;;;;5.43;94.31;99346.28;5071542;28;20318;-65
2023/01/09 02:21:40;;;;;;;;;;;;;;;5.42;94.42;99352.53;5071880;28;19942;-66
2023/01/09 02:24:08;;;;;;;;;;;;;;;5.39;94.83;99343.97;5069589;28;19916;-65
2023/01/09 02:26:58;;;;;;;;;;;;;;;5.38;94.20;99350.19;5070540;28;19923;-65
2023/01/09 02:29:30;;;;;;;;;;;;;;;5.38;93.62;99347.53;5071546;28;20367;-65
2023/01/09 02:32:01;;;;;;;;;;;;;;;5.34;94.79;99344.28;5071772;28;19974;-65
2023/01/09 02:34:42;;;;;;;;;;;;;;;5.29;96.03;99345.50;5059864;28;19924;-66
2023/01/09 02:37:16;;;;;;;;;;;;;;;5.28;94.87;99343.84;5075523;28;20428;-65
2023/01/09 02:39:42;;;;;;;;;;;;;;;5.25;95.53;99334.34;5075320;28;20437;-66
2023/01/09 02:42:07;;;;;;;;;;;;;;;5.29;94.22;99334.97;5074986;28;19912;-65
2023/01/09 02:44:35;;;;;;;;;;;;;;;5.26;94.49;99338.66;5064451;28;20291;-65
2023/01/09 02:47:03;;;;;;;;;;;;;;;5.24;95.43;99351.09;5075352;28;19924;-65
2023/01/09 02:49:30;;;;;;;;;;;;;;;5.30;94.81;99349.88;5075301;28;19995;-65
2023/01/09 02:52:06;;;;;;;;;;;;;;;5.24;95.10;99336.13;5073729;28;19912;-65
2023/01/09 02:54:47;;;;;;;;;;;;;;;5.21;94.32;99340.75;5074751;28;19908;-65
2023/01/09 02:57:20;;;;;;;;;;;;;;;5.20;94.54;99339.91;5075119;28;20335;-65
2023/01/09 03:00:01;;;;;;;;;;;;;;;5.17;95.23;99326.06;5074286;28;20287;-65
2023/01/09 03:02:33;;;;;;;;;;;;;;;5.15;95.34;99322.72;5073518;28;20007;-65
2023/01/09 03:05:06;;;;;;;;;;;;;;;5.17;95.47;99324.28;5074913;28;19947;-66
2023/01/09 03:07:45;;;;;;;;;;;;;;;5.16;95.45;99324.41;5069382;28;19913;-66
2023/01/09 03:10:10;;;;;;;;;;;;;;;5.13;94.76;99314.91;5054512;28;20013;-66
2023/01/09 03:12:37;;;;;;;;;;;;;;;5.09;96.38;99323.97;5055142;28;20001;-65
2023/01/09 03:15:03;;;;;;;;;;;;;;;5.09;95.23;99321.31;5053544;28;19908;-65
2023/01/09 03:17:30;;;;;;;;;;;;;;;5.08;94.85;99330.16;5086983;28;20003;-65
2023/01/09 03:19:57;;;;;;;;;;;;;;;5.06;95.38;99331.19;5055241;28;20348;-65
2023/01/09 03:22:22;;;;;;;;;;;;;;;5.06;95.48;99337.34;5062257;28;19924;-65
2023/01/09 03:24:48;;;;;;;;;;;;;;;5.13;94.76;99335.13;5074000;28;20139;-65
2023/01/09 03:27:15;;;;;;;;;;;;;;;5.05;95.51;99337.41;5073037;28;19920;-65
2023/01/09 03:29:41;;;;;;;;;;;;;;;5.03;95.56;99341.94;5061724;28;19916;-66
2023/01/09 03:32:06;;;;;;;;;;;;;;;5.06;96.11;99341.72;5104570;28;19922;-65
2023/01/09 03:34:32;;;;;;;;;;;;;;;5.02;96.59;99343.72;5059379;28;20010;-65
2023/01/09 03:36:57;;;;;;;;;;;;;;;5.14;95.49;99336.81;5091546;28;19916;-65
2023/01/09 03:39:22;;;;;;;;;;;;;;;5.09;94.82;99333.63;5052702;28;19971;-65
2023/01/09 03:41:48;;;;;;;;;;;;;;;5.05;96.76;99337.41;5054445;28;19913;-65
2023/01/09 03:44:13;;;;;;;;;;;;;;;5.06;96.37;99333.84;5052565;28;19913;-66
2023/01/09 03:46:39;;;;;;;;;;;;;;;5.08;95.93;99338.06;5052540;28;19985;-66
2023/01/09 03:49:04;;;;;;;;;;;;;;;5.05;95.70;99340.91;5074331;28;19938;-65
2023/01/09 03:51:31;;;;;;;;;;;;;;;5.05;96.27;99340.91;5073550;28;19991;-65
2023/01/09 03:53:56;;;;;;;;;;;;;;;5.11;95.25;99340.50;5060161;28;19909;-66
2023/01/09 03:56:21;;;;;;;;;;;;;;;5.07;95.79;99339.00;5054294;28;19912;-65
2023/01/09 03:58:48;;;;;;;;;;;;;;;5.07;95.89;99344.28;5055096;28;19908;-66
2023/01/09 04:01:14;;;;;;;;;;;;;;;5.00;96.63;99346.47;5085711;28;19920;-65
2023/01/09 04:03:42;;;;;;;;;;;;;;;5.08;96.00;99331.94;5052694;28;19909;-65
2023/01/09 04:06:07;;;;;;;;;;;;;;;5.03;97.17;99345.44;5054310;28;19952;-66
2023/01/09 04:08:32;;;;;;;;;;;;;;;5.08;96.20;99337.22;5085169;28;20692;-65
2023/01/09 04:11:00;;;;;;;;;;;;;;;5.10;96.47;99340.63;5065482;28;20279;-66
2023/01/09 04:13:25;;;;;;;;;;;;;;;5.15;96.78;99344.66;5073723;28;19917;-65
2023/01/09 04:15:50;;;;;;;;;;;;;;;5.22;95.90;99345.91;5088419;28;19935;-65
2023/01/09 04:18:16;;;;;;;;;;;;;;;5.29;95.88;99334.97;5063927;28;19915;-65
2023/01/09 04:20:45;;;;;;;;;;;;;;;5.22;97.40;99337.19;5060138;28;19971;-66
2023/01/09 04:23:12;;;;;;;;;;;;;;;5.29;96.25;99338.44;5073384;28;19908;-65
2023/01/09 04:25:38;;;;;;;;;;;;;;;5.33;96.22;99334.69;5072478;28;19912;-66
2023/01/09 04:28:03;;;;;;;;;;;;;;;5.36;96.09;99342.38;5073544;28;19912;-65
2023/01/09 04:30:29;;;;;;;;;;;;;;;5.42;95.82;99344.63;5087420;28;19969;-65
2023/01/09 04:32:54;;;;;;;;;;;;;;;5.42;95.64;99330.59;5068355;28;19995;-65
2023/01/09 04:35:19;;;;;;;;;;;;;;;5.40;96.57;99337.75;5053277;28;19958;-66
2023/01/09 04:37:45;;;;;;;;;;;;;;;5.52;96.32;99330.81;5053452;28;19955;-66
2023/01/09 04:40:11;;;;;;;;;;;;;;;5.56;95.97;99337.56;5085201;28;20276;-65
2023/01/09 04:42:37;;;;;;;;;;;;;;;5.50;96.61;99338.84;5054139;28;19928;-65
2023/01/09 04:45:05;;;;;;;;;;;;;;;5.59;96.87;99338.22;5050668;28;20336;-65
2023/01/09 04:47:31;;;;;;;;;;;;;;;5.57;95.83;99328.72;5053145;28;19959;-65
2023/01/09 04:49:57;;;;;;;;;;;;;;;5.54;96.07;99336.84;5051882;28;19912;-65
2023/01/09 04:52:22;;;;;;;;;;;;;;;5.57;95.97;99334.00;5053067;28;19916;-65
2023/01/09 04:54:47;;;;;;;;;;;;;;;5.58;96.01;99338.31;5067687;28;19919;-65
2023/01/09 04:57:14;;;;;;;;;;;;;;;5.62;95.90;99337.19;5052766;28;19934;-65
2023/01/09 04:59:39;;;;;;;;;;;;;;;5.80;95.02;99335.94;5053795;28;19916;-65
2023/01/09 05:02:05;;;;;;;;;;;;;;;5.74;94.82;99336.34;5085160;28;20065;-66
2023/01/09 05:04:30;;;;;;;;;;;;;;;5.72;95.68;99329.50;5053740;28;19920;-65
2023/01/09 05:06:56;;;;;;;;;;;;;;;5.69;95.72;99333.19;5084852;28;19912;-66
2023/01/09 05:09:21;;;;;;;;;;;;;;;5.77;95.41;99330.88;5052182;28;19916;-65
2023/01/09 05:11:47;;;;;;;;;;;;;;;5.82;94.85;99331.38;5052726;28;19912;-65
2023/01/09 05:14:12;;;;;;;;;;;;;;;5.74;95.33;99328.44;5052466;28;19916;-65
2023/01/09 05:16:38;;;;;;;;;;;;;;;5.77;95.32;99325.59;5053100;28;20410;-66
2023/01/09 05:19:03;;;;;;;;;;;;;;;5.86;94.49;99326.78;5052293;28;20295;-65
2023/01/09 05:21:28;;;;;;;;;;;;;;;5.81;94.52;99321.78;5052315;28;19959;-66
2023/01/09 05:23:54;;;;;;;;;;;;;;;5.83;95.04;99337.53;5084084;28;19920;-65
2023/01/09 05:26:23;;;;;;;;;;;;;;;5.87;94.62;99334.56;5052658;28;19921;-66
2023/01/09 05:28:55;;;;;;;;;;;;;;;5.91;94.40;99322.88;5051146;28;19909;-65
2023/01/09 05:31:20;;;;;;;;;;;;;;;5.90;94.36;99320.31;5052583;28;20314;-66
2023/01/09 05:33:46;;;;;;;;;;;;;;;5.89;94.90;99323.91;5053668;28;19916;-65
2023/01/09 05:36:11;;;;;;;;;;;;;;;5.95;94.66;99325.31;5082308;28;19916;-65
2023/01/09 05:38:37;;;;;;;;;;;;;;;5.92;94.33;99316.63;5058497;28;19921;-65
2023/01/09 05:41:02;;;;;;;;;;;;;;;5.97;94.08;99326.03;5052326;28;20019;-65
2023/01/09 05:43:28;;;;;;;;;;;;;;;5.96;94.37;99313.81;5062028;28;19912;-65
2023/01/09 05:45:53;;;;;;;;;;;;;;;6.03;93.62;99313.28;5079774;28;20441;-66
2023/01/09 05:48:18;;;;;;;;;;;;;;;6.01;93.99;99319.63;5034268;28;19932;-65
2023/01/09 05:50:44;;;;;;;;;;;;;;;5.99;94.42;99318.88;5057029;28;19942;-66
2023/01/09 05:53:09;;;;;;;;;;;;;;;6.03;93.65;99313.28;5053871;28;20318;-66
2023/01/09 05:55:34;;;;;;;;;;;;;;;6.07;93.81;99309.47;5050439;28;20371;-65
2023/01/09 05:58:01;;;;;;;;;;;;;;;6.05;93.81;99302.63;5083814;28;19966;-65
2023/01/09 06:00:26;;;;;;;;;;;;;;;6.11;93.64;99304.81;5058442;28;19912;-65
2023/01/09 06:02:52;;;;;;;;;;;;;;;6.07;93.86;99316.56;5056532;28;20272;-66
2023/01/09 06:05:17;;;;;;;;;;;;;;;6.09;93.25;99312.03;5050184;28;19908;-66
2023/01/09 06:07:42;;;;;;;;;;;;;;;6.10;93.27;99301.34;5052482;28;20341;-66
2023/01/09 06:10:10;;;;;;;;;;;;;;;6.14;92.90;99300.16;5068866;28;19916;-66
2023/01/09 06:12:36;;;;;;;;;;;;;;;6.14;93.76;99304.63;5070655;28;20291;-65
2023/01/09 06:15:01;;;;;;;;;;;;;;;6.18;93.50;99307.88;5081518;28;19916;-66
2023/01/09 06:17:26;;;;;;;;;;;;;;;6.18;93.48;99298.19;5065700;28;19908;-66
2023/01/09 06:19:51;;;;;;;;;;;;;;;6.22;93.22;99304.94;5051255;28;19959;-66
2023/01/09 06:22:17;;;;;;;;;;;;;;;6.30;92.72;99307.03;5051851;28;19917;-65
2023/01/09 06:24:44;;;;;;;;;;;;;;;6.27;92.34;99317.81;5064470;28;20403;-65
2023/01/09 06:27:11;;;;;;;;;;;;;;;6.28;92.27;99308.94;5071770;28;19924;-65
2023/01/09 06:29:37;;;;;;;;;;;;;;;6.36;92.37;99303.97;5071727;28;19919;-65
2023/01/09 06:32:02;;;;;;;;;;;;;;;6.41;91.14;99311.56;5071778;28;19913;-65
2023/01/09 06:34:28;;;;;;;;;;;;;;;6.49;91.51;99314.50;5077953;28;19951;-65
2023/01/09 06:36:53;;;;;;;;;;;;;;;6.41;91.60;99308.91;5070536;28;19908;-65
2023/01/09 06:39:19;;;;;;;;;;;;;;;6.40;91.69;99323.91;5086985;28;20373;-65
2023/01/09 06:41:44;;;;;;;;;;;;;;;6.46;91.62;99320.00;5086405;28;20356;-66
2023/01/09 06:44:09;;;;;;;;;;;;;;;6.42;91.76;99327.31;5075584;28;20387;-65
2023/01/09 06:46:38;;;;;;;;;;;;;;;6.50;91.40;99319.69;5051185;28;19931;-66
2023/01/09 06:49:03;;;;;;;;;;;;;;;6.43;91.98;99322.84;5051403;28;20339;-66
2023/01/09 06:51:28;;;;;;;;;;;;;;;6.63;90.59;99310.88;5051551;28;19948;-66
2023/01/09 06:53:54;;;;;;;;;;;;;;;6.55;90.84;99309.63;5057111;28;19912;-66
2023/01/09 06:56:20;;;;;;;;;;;;;;;6.53;90.77;99329.16;5068801;28;19909;-66
2023/01/09 06:58:45;;;;;;;;;;;;;;;6.70;89.54;99335.91;5057592;28;19913;-65
2023/01/09 07:01:11;;;;;;;;;;;;;;;6.68;89.87;99335.19;5081512;28;20340;-66
2023/01/09 07:03:36;;;;;;;;;;;;;;;6.56;90.12;99331.63;5065455;28;19920;-66
2023/01/09 07:06:04;;;;;;;;;;;;;;;6.66;89.98;99337.91;5063294;28;19913;-66
2023/01/09 07:08:29;;;;;;;;;;;;;;;6.73;89.53;99339.16;5065662;28;20007;-65
2023/01/09 07:10:55;;;;;;;;;;;;;;;6.72;89.63;99334.00;5050963;28;20432;-65
2023/01/09 07:13:20;;;;;;;;;;;;;;;6.66;90.54;99343.22;5050883;28;20012;-66
2023/01/09 07:15:46;;;;;;;;;;;;;;;6.76;89.99;99343.38;5052845;28;20007;-65
2023/01/09 07:18:11;;;;;;;;;;;;;;;6.63;91.40;99353.16;5066658;28;19919;-66
2023/01/09 07:20:37;;;;;;;;;;;;;;;6.74;90.23;99350.59;5053791;28;20334;-66
2023/01/09 07:23:03;;;;;;;;;;;;;;;6.62;91.42;99364.66;5055835;28;20019;-65
2023/01/09 07:25:28;;;;;;;;;;;;;;;6.57;91.85;99367.63;5057355;28;19913;-65
2023/01/09 07:27:56;;;;;;;;;;;;;;;6.52;93.32;99375.88;5073133;28;19940;-65
2023/01/09 07:30:21;;;;;;;;;;;;;;;6.57;92.81;99370.28;5077317;28;19966;-66
2023/01/09 07:32:47;;;;;;;;;;;;;;;6.59;92.42;99381.59;5055005;28;19985;-66
2023/01/09 07:35:12;;;;;;;;;;;;;;;6.51;93.50;99376.81;5086969;28;20345;-65
2023/01/09 07:37:38;;;;;;;;;;;;;;;6.59;93.60;99400.06;5050110;28;19932;-65
2023/01/09 07:40:03;;;;;;;;;;;;;;;6.67;92.13;99395.06;5066347;28;19912;-65
2023/01/09 07:42:31;;;;;;;;;;;;;;;6.47;94.33;99387.69;5089306;28;20473;-65
2023/01/09 07:44:57;;;;;;;;;;;;;;;6.40;95.33;99394.38;5054125;28;19913;-65
2023/01/09 07:47:22;;;;;;;;;;;;;;;6.60;94.06;99396.47;5062774;28;20022;-65
2023/01/09 07:49:48;;;;;;;;;;;;;;;6.41;95.14;99394.25;5069328;28;19913;-66
2023/01/09 07:52:13;;;;;;;;;;;;;;;6.46;94.67;99401.88;5072286;28;19912;-65
2023/01/09 07:54:39;;;;;;;;;;;;;;;6.73;93.02;99409.66;5106128;28;20371;-65
2023/01/09 07:57:05;;;;;;;;;;;;;;;6.53;93.79;99414.56;5074077;28;19915;-65
2023/01/09 07:59:32;;;;;;;;;;;;;;;6.57;94.48;99416.00;5056731;28;20317;-66
2023/01/09 08:01:58;;;;;;;;;;;;;;;6.63;93.53;99416.56;5054378;28;20394;-65
2023/01/09 08:04:23;;;;;;;;;;;;;;;6.72;93.12;99432.59;5086122;28;19912;-66
2023/01/09 08:06:49;;;;;;;;;;;;;;;6.50;95.30;99422.69;5054029;28;19916;-65
2023/01/09 08:09:14;;;;;;;;;;;;;;;6.56;94.65;99429.34;5064685;28;20011;-65
2023/01/09 08:11:40;;;;;;;;;;;;;;;6.67;93.92;99426.78;5053737;28;19912;-65
2023/01/09 08:14:05;;;;;;;;;;;;;;;6.36;94.80;99407.78;5065371;28;19920;-66
2023/01/09 08:16:30;;;;;;;;;;;;;;;6.67;93.67;99432.06;5061609;28;19916;-66
2023/01/09 08:18:56;;;;;;;;;;;;;;;6.51;95.14;99440.22;5067607;28;19962;-65
2023/01/09 08:21:22;;;;;;;;;;;;;;;6.58;94.81;99451.19;5053175;28;19970;-66
2023/01/09 08:23:47;;;;;;;;;;;;;;;6.55;94.90;99452.25;5052583;28;20319;-65
2023/01/09 08:26:13;;;;;;;;;;;;;;;6.54;95.20;99457.66;5085276;28;19960;-66
2023/01/09 08:28:38;;;;;;;;;;;;;;;6.44;95.52;99461.84;5053442;28;20023;-66
2023/01/09 08:31:06;;;;;;;;;;;;;;;6.52;95.03;99459.53;5053799;28;19939;-66
2023/01/09 08:33:34;;;;;;;;;;;;;;;6.66;95.40;99474.44;5085612;28;19917;-66
2023/01/09 08:36:01;;;;;;;;;;;;;;;6.43;96.80;99474.22;5095708;28;19920;-66
2023/01/09 08:38:27;;;;;;;;;;;;;;;6.48;96.99;99482.69;5066068;28;19912;-66
2023/01/09 08:40:52;;;;;;;;;;;;;;;6.52;96.35;99483.31;5053036;28;19925;-66
2023/01/09 08:48:48;;;;;;;;;;;;;;;6.42;97.52;99493.66;5078337;28;19928;-65
2023/01/09 08:51:14;;;;;;;;;;;;;;;6.35;98.80;99492.38;5085004;28;20364;-65
2023/01/09 08:53:39;;;;;;;;;;;;;;;6.46;97.49;99497.78;5067419;28;20393;-66
2023/01/09 08:56:05;;;;;;;;;;;;;;;6.35;99.11;99508.22;5052413;28;20011;-66
2023/01/09 08:58:30;;;;;;;;;;;;;;;6.32;100.00;99518.97;5063512;28;19912;-66
2023/01/09 09:00:57;;;;;;;;;;;;;;;6.46;97.54;99521.56;5055620;28;19920;-66
2023/01/09 09:03:23;;;;;;;;;;;;;;;6.49;98.01;99533.72;5051221;28;19951;-65
2023/01/09 09:05:48;;;;;;;;;;;;;;;6.44;97.84;99530.53;5065107;28;20378;-66
2023/01/09 09:08:15;;;;;;;;;;;;;;;6.33;99.75;99541.81;5083498;28;20007;-65
2023/01/09 09:10:43;;;;;;;;;;;;;;;6.40;98.50;99555.47;5066918;28;19923;-65
2023/01/09 09:13:09;;;;;;;;;;;;;;;6.35;100.00;99561.91;5068128;28;19960;-66
2023/01/09 09:15:36;;;;;;;;;;;;;;;6.42;98.98;99557.03;5052132;28;19967;-66
2023/01/09 09:18:03;;;;;;;;;;;;;;;6.37;99.75;99557.34;5052780;28;20443;-66
2023/01/09 09:20:30;;;;;;;;;;;;;;;6.39;100.00;99566.97;5084068;28;20027;-66
2023/01/09 09:22:56;;;;;;;;;;;;;;;6.42;99.90;99569.41;5051529;28;19916;-66
2023/01/09 09:25:22;;;;;;;;;;;;;;;6.47;100.00;99578.72;5083807;28;19916;-65
2023/01/09 09:27:47;;;;;;;;;;;;;;;6.40;99.90;99580.06;5057317;28;19916;-65
2023/01/09 09:30:14;;;;;;;;;;;;;;;6.35;100.00;99580.38;5062316;28;19920;-66
2023/01/09 09:32:39;;;;;;;;;;;;;;;6.40;100.00;99587.16;5059985;28;19923;-66
2023/01/09 09:35:05;;;;;;;;;;;;;;;6.41;100.00;99597.59;5051399;28;19912;-66
2023/01/09 09:37:31;;;;;;;;;;;;;;;6.59;99.44;99598.19;5057583;28;20018;-66
2023/01/09 09:39:56;;;;;;;;;;;;;;;6.43;99.14;99605.44;5059707;28;20364;-65
2023/01/09 09:45:17;;;;;;;;;;;;;;;6.47;99.70;99609.53;5051217;28;20331;-65
2023/01/09 09:48:06;;;;;;;;;;;;;;;6.54;99.77;99624.91;5055046;28;19916;-66
2023/01/09 09:50:50;;;;;;;;;;;;;;;6.42;100.00;99624.88;5058326;28;19915;-66
2023/01/09 09:53:15;;;;;;;;;;;;;;;6.45;100.00;99630.78;5085553;28;19921;-66
2023/01/09 09:55:41;;;;;;;;;;;;;;;6.44;100.00;99631.75;5051699;28;19909;-66
2023/01/09 09:58:14;;;;;;;;;;;;;;;6.47;100.00;99642.13;5053060;28;20004;-65
2023/01/09 10:00:40;;;;;;;;;;;;;;;6.53;100.00;99659.31;5051404;28;19918;-66
2023/01/09 10:03:06;;;;;;;;;;;;;;;6.55;100.00;99665.38;5051074;28;19990;-65
2023/01/09 10:05:34;;;;;;;;;;;;;;;6.88;98.28;99661.44;5051214;28;19999;-65
2023/01/09 10:08:12;;;;;;;;;;;;;;;6.71;99.44;99675.78;5052241;28;20015;-66
2023/01/09 10:10:42;;;;;;;;;;;;;;;6.63;100.00;99675.44;5050813;28;19908;-66
2023/01/09 10:16:07;;;;;;;;;;;;;;;6.80;99.73;99681.31;5054844;28;20267;-65
2023/01/09 10:18:47;;;;;;;;;;;;;;;6.83;99.80;99686.38;5048306;28;19966;-66
2023/01/09 10:21:20;;;;;;;;;;;;;;;6.76;100.00;99689.53;5051156;28;19913;-66
2023/01/09 10:24:04;;;;;;;;;;;;;;;6.87;99.87;99691.47;5051114;28;19912;-66
2023/01/09 10:26:36;;;;;;;;;;;;;;;6.73;100.00;99698.50;5049765;28;19929;-66
2023/01/09 10:29:05;;;;;;;;;;;;;;;6.76;100.00;99706.22;5050894;28;20004;-65
2023/01/09 10:31:33;;;;;;;;;;;;;;;6.83;99.75;99702.25;5047745;28;19913;-66
2023/01/09 10:34:17;;;;;;;;;;;;;;;6.74;100.00;99705.50;5052032;28;19913;-66
2023/01/09 10:37:01;;;;;;;;;;;;;;;6.75;100.00;99704.53;5045125;28;19972;-66
2023/01/09 10:39:32;;;;;;;;;;;;;;;6.72;100.00;99714.47;5066653;28;19916;-66
2023/01/09 10:42:03;;;;;;;;;;;;;;;6.72;100.00;99717.94;5050769;28;19916;-66
2023/01/09 10:44:36;;;;;;;;;;;;;;;6.75;100.00;99706.34;5050365;28;19913;-66
2023/01/09 10:47:02;;;;;;;;;;;;;;;6.87;100.00;99696.75;5050382;28;19921;-66
2023/01/09 10:49:28;;;;;;;;;;;;;;;6.84;99.63;99708.38;5048503;28;19912;-66
2023/01/09 10:51:53;;;;;;;;;;;;;;;6.92;98.39;99708.72;5047283;28;20395;-66
2023/01/09 10:54:22;;;;;;;;;;;;;;;6.80;99.92;99713.00;5049509;28;20291;-66
2023/01/09 10:57:17;;;;;;;;;;;;;;;6.81;99.60;99719.97;5058586;28;20260;-66
2023/01/09 10:59:42;;;;;;;;;;;;;;;7.15;99.87;99720.41;5028028;28;20284;-66
2023/01/09 11:02:23;;;;;;;;;;;;;;;7.50;98.58;99727.75;5056077;28;19916;-66
2023/01/09 11:04:49;;;;;;;;;;;;;;;7.83;98.40;99727.22;5056594;28;19913;-66
2023/01/09 11:07:22;;;;;;;;;;;;;;;8.01;97.78;99725.06;5054666;28;19916;-66
2023/01/09 11:09:59;;;;;;;;;;;;;;;8.07;97.16;99729.09;5053984;28;19909;-66
2023/01/09 11:12:25;;;;;;;;;;;;;;;8.08;96.04;99726.31;5053051;28;20368;-68
2023/01/09 11:14:51;;;;;;;;;;;;;;;7.98;95.36;99725.28;5057479;28;19909;-66
2023/01/09 11:17:18;;;;;;;;;;;;;;;8.12;95.16;99726.97;5060976;28;20340;-69
2023/01/09 11:19:58;;;;;;;;;;;;;;;8.27;93.45;99719.75;5066045;28;19909;-66
2023/01/09 11:22:24;;;;;;;;;;;;;;;8.14;93.63;99730.34;5034111;28;19996;-66
2023/01/09 11:24:59;;;;;;;;;;;;;;;8.45;93.08;99736.97;5032145;28;20024;-66
2023/01/09 11:27:24;;;;;;;;;;;;;;;8.97;90.67;99737.59;5034244;28;19917;-67
2023/01/09 11:30:04;;;;;;;;;;;;;;;9.17;91.75;99742.25;5052834;28;19967;-67
2023/01/09 11:32:32;;;;;;;;;;;;;;;9.35;90.92;99742.69;5053554;28;19913;-66
2023/01/09 11:34:58;;;;;;;;;;;;;;;9.51;88.37;99748.53;5054581;28;19913;-67
2023/01/09 11:37:28;;;;;;;;;;;;;;;9.40;88.42;99748.50;5054707;28;19935;-67
2023/01/09 11:39:54;;;;;;;;;;;;;;;8.98;87.68;99765.84;5055232;28;19917;-67
2023/01/09 11:45:14;;;;;;;;;;;;;;;8.56;88.87;99766.22;5054447;28;19978;-66
2023/01/09 11:47:39;;;;;;;;;;;;;;;8.36;90.34;99775.53;5054013;28;19916;-66
2023/01/09 11:50:14;;;;;;;;;;;;;;;8.12;90.51;99777.28;5072624;28;19916;-66
2023/01/09 11:52:39;;;;;;;;;;;;;;;7.94;92.20;99774.97;5059302;28;19912;-66
2023/01/09 11:55:09;;;;;;;;;;;;;;;7.90;92.37;99776.13;5053993;28;19920;-67
2023/01/09 11:57:34;;;;;;;;;;;;;;;7.94;92.21;99787.34;5053204;28;19915;-66
2023/01/09 12:00:02;;;;;;;;;;;;;;;7.79;93.00;99783.09;5069384;28;19913;-67
2023/01/09 12:02:54;;;;;;;;;;;;;;;7.73;92.92;99784.38;5054114;28;19913;-66
2023/01/09 12:05:22;;;;;;;;;;;;;;;7.63;94.16;99780.66;5037304;28;19913;-66
2023/01/09 12:07:56;;;;;;;;;;;;;;;7.74;92.77;99772.84;5053184;28;19952;-67
2023/01/09 12:10:28;;;;;;;;;;;;;;;7.89;92.28;99777.09;5053289;28;19944;-66
2023/01/09 12:12:59;;;;;;;;;;;;;;;7.85;92.91;99778.25;5062056;28;19912;-66
2023/01/09 12:15:33;;;;;;;;;;;;;;;8.01;91.91;99770.09;5073601;28;20003;-66
2023/01/09 12:18:22;;;;;;;;;;;;;;;8.41;91.12;99784.06;5072517;28;19912;-66
2023/01/09 12:20:47;;;;;;;;;;;;;;;8.60;91.31;99791.53;5073273;28;19999;-66
2023/01/09 12:23:31;;;;;;;;;;;;;;;8.69;89.67;99782.06;5065380;28;20015;-66
2023/01/09 12:26:15;;;;;;;;;;;;;;;8.31;89.69;99790.06;5053661;28;19913;-65
2023/01/09 12:29:05;;;;;;;;;;;;;;;8.14;90.61;99786.78;5053338;28;20390;-66
2023/01/09 12:31:37;;;;;;;;;;;;;;;8.08;90.23;99795.16;5053432;28;19913;-66
2023/01/09 12:34:17;;;;;;;;;;;;;;;8.00;90.79;99794.88;5054189;28;20360;-66
2023/01/09 12:36:50;;;;;;;;;;;;;;;8.16;89.71;99792.00;5053323;28;19913;-66
2023/01/09 12:39:15;;;;;;;;;;;;;;;8.12;90.75;99803.78;5052943;28;19909;-66
2023/01/09 12:41:47;;;;;;;;;;;;;;;8.35;90.52;99789.75;5053424;28;19913;-66
2023/01/09 12:44:24;;;;;;;;;;;;;;;8.38;90.99;99797.53;5052810;28;19944;-66
2023/01/09 12:46:55;;;;;;;;;;;;;;;8.66;89.40;99802.66;5053382;28;19920;-66
2023/01/09 12:49:31;;;;;;;;;;;;;;;8.69;89.36;99797.97;5051556;28;19956;-66
2023/01/09 12:52:01;;;;;;;;;;;;;;;8.69;89.45;99797.97;5053069;28;19948;-66
2023/01/09 12:54:33;;;;;;;;;;;;;;;8.68;88.81;99798.94;5054050;28;19916;-66
2023/01/09 12:57:07;;;;;;;;;;;;;;;8.57;88.73;99807.66;5053147;28;19916;-66
2023/01/09 12:59:39;;;;;;;;;;;;;;;8.55;88.43;99803.41;5052924;28;19966;-65
2023/01/09 13:02:07;;;;;;;;;;;;;;;8.51;89.74;99808.09;5052882;28;19920;-65
2023/01/09 13:04:35;;;;;;;;;;;;;;;8.36;90.23;99807.34;5053624;28;19912;-66
2023/01/09 13:07:03;;;;;;;;;;;;;;;8.32;90.39;99811.13;5052832;28;19909;-66
2023/01/09 13:09:40;;;;;;;;;;;;;;;8.29;90.77;99816.66;5060192;28;20391;-66
2023/01/09 13:12:20;;;;;;;;;;;;;;;8.26;91.45;99823.97;5052729;28;19915;-66
2023/01/09 13:14:47;;;;;;;;;;;;;;;8.19;90.81;99828.88;5052334;28;19991;-65
2023/01/09 13:17:19;;;;;;;;;;;;;;;8.27;90.55;99846.88;5050932;28;19908;-66